logo
Search for airport 
image banner adimage banner adimage banner ad
image banner ad

EI0005 - Brittas House

Located in , Ireland

ICAO - , IATA -

Data provided by Airmate  

General information

Coordinates: N52°37'20" W8°28'5"
Elevation is 135 feet MSL.
 
View others Airports in County Limerick

Operational data

Special qualification required
Current time UTC:
Current local time:
Weather at : EINN - Shannon ( 32 km )
METAR: EINN 231830Z 26006KT 9999 FEW020 BKN034 BKN200 19/14 Q1022 NOSIG
TAF: TAF EINN 231700Z 2318/2418 VRB03KT 9999 FEW020 BKN035 BECMG 2406/2408 14010KT PROB30 TEMPO 2406/2410 -RA BKN010 BECMG 2410/2412 17012KT TEMPO 2410/2418 -RA BKN010 BECMG 2414/2416 22005KT
View NOTAMs / SUP AIP / TFR affecting this airport [VIEW]
Communications frequencies: [VIEW]

Runways:

Airport contact information

Address: Ireland

Satellite view of EI0005